Latest Coastal Weather Observations for Proserpine

IDQ60701

Issued at 8:12 am EST Thursday 29 January 2015 (issued every 10 minutes, with the page automatically refreshed every 10 minutes)

About coastal observations | Map of coastal stations | Coastal observations for QLD | Marine services | Other Formats
Station Details ID: 033247 Name: PROSERPINE AIRPORT Lat: -20.49 Lon: 148.56 Height: 19.7 m
Data from the previous 72 hours. | See also: Recent months at Proserpine
Date/Time
EST
Temp

°C
Wind Pressure Rain
since 9am
mm
Weather Cloud Vis
km
Sea
Height
m
Swell
Dir
 
Speed
knots
Gust
knots
hPa Trend Height
m
Period
s
Dir
29/08:00am 27.5 SE 6 8 1004.5 - 0.0 - Partly cloudy 10 - - - -
29/07:59am 27.5 SE 6 8 1004.5 - 0.0 - Partly cloudy 10 - - - -
29/07:30am 26.2 SSW 5 7 1004.5 - 0.0 - Partly cloudy 10 - - - -
29/07:04am 25.7 S 5 6 1004.6 - 0.0 - Partly cloudy 10 - - - -
29/07:00am 25.6 S 5 6 1004.5 - 0.0 - Partly cloudy 10 - - - -
29/06:30am 25.0 S 4 5 1004.1 - 0.0 - Partly cloudy 10 - - - -
29/06:00am 24.4 S 4 6 1003.6 - 0.0 - Mostly cloudy 10 - - - -
29/05:30am 24.5 CALM 0 0 1003.2 - 0.0 - Partly cloudy 10 - - - -
29/05:03am 24.7 SE 5 7 1003.1 - 0.0 - Partly cloudy 10 - - - -
29/05:00am 24.7 SSE 5 7 1003.1 - 0.0 - Partly cloudy 10 - - - -
29/04:32am 24.6 E 3 4 1002.7 - 0.0 - Partly cloudy 10 - - - -
29/04:30am 24.6 E 3 4 1002.7 - 0.0 - Partly cloudy 10 - - - -
29/04:00am 24.8 ESE 4 6 1002.5 - 0.0 - Partly cloudy 10 - - - -
29/03:48am 24.9 SE 6 8 1002.4 - 0.0 - Partly cloudy 10 - - - -
29/03:30am 25.0 SSE 5 6 1002.3 - 0.0 - Partly cloudy 10 - - - -
29/03:05am 24.8 SSE 5 7 1002.1 - 0.0 - Partly cloudy 10 - - - -
29/03:00am 24.8 SSE 5 7 1002.1 - 0.0 - Mostly clear 10 - - - -
29/02:30am 25.0 SE 5 7 1002.3 - 0.0 - Partly cloudy 10 - - - -
29/02:20am 25.1 SSE 6 9 1002.5 - 0.0 - Partly cloudy 10 - - - -
29/02:00am 25.3 SE 6 8 1002.9 - 0.0 - Partly cloudy 10 - - - -
29/01:37am 25.3 SE 5 7 1003.0 - 0.0 - Partly cloudy 10 - - - -
29/01:30am 25.2 SE 5 7 1003.0 - 0.0 - Partly cloudy 10 - - - -
29/01:24am 25.2 SSE 6 7 1003.1 - 0.0 - Partly cloudy 10 - - - -
29/01:14am 25.2 SSE 6 7 1003.1 - 0.0 - Partly cloudy 10 - - - -
29/01:08am 25.2 SSE 6 9 1003.2 - 0.0 - Partly cloudy 10 - - - -
29/01:00am 25.3 SSE 7 9 1003.2 - 0.0 - Partly cloudy 10 - - - -
29/12:30am 25.8 ESE 11 15 1003.6 - 0.0 - Partly cloudy 10 - - - -
29/12:29am 25.8 ESE 11 15 1003.6 - 0.0 - Partly cloudy 10 - - - -
29/12:25am 25.9 ESE 10 14 1003.6 - 0.0 - Partly cloudy 10 - - - -
29/12:12am 25.7 SE 7 11 1003.5 - 0.0 - Partly cloudy 10 - - - -
 
Date/Time
EST
Temp

°C
Wind Pressure Rain
since 9am
mm
Weather Cloud Vis
km
Sea
Height
m
Swell
Dir
 
Speed
knots
Gust
knots
hPa Trend Height
m
Period
s
Dir
28/11:30pm 25.7 ESE 10 15 1003.9 - 0.0 - Partly cloudy 10 - - - -
28/11:28pm 25.6 ESE 10 15 1003.9 - 0.0 - Partly cloudy 10 - - - -
28/11:00pm 26.0 ESE 8 11 1003.7 - 0.0 - Partly cloudy 10 - - - -
28/10:55pm 26.1 ESE 8 12 1003.7 - 0.0 - Partly cloudy 10 - - - -
28/10:30pm 26.0 ENE 1 4 1003.7 - 0.0 - Partly cloudy 10 - - - -
28/10:00pm 25.6 E 3 4 1003.3 - 0.0 - Partly cloudy 10 - - - -
28/09:30pm 25.5 CALM 0 2 1002.6 - 0.0 - Partly cloudy 10 - - - -
28/09:00pm 25.4 CALM 0 2 1002.4 - 0.0 - Mostly clear 10 - - - -
28/08:30pm 25.5 NE 2 4 1002.2 - 0.0 - Partly cloudy 10 - - - -
28/08:00pm 26.2 CALM 0 1 1001.7 - 0.0 - Cloudy 10 - - - -
28/07:30pm 26.6 CALM 0 3 1001.3 - 0.0 - - 10 - - - -
28/07:00pm 27.1 S 1 3 1000.6 - 0.0 - - 10 - - - -
28/06:30pm 27.9 CALM 0 0 1000.4 - 0.0 - - 10 - - - -
28/06:00pm 28.1 NNW 4 7 1000.3 - 0.0 - - 10 - - - -
28/05:30pm 28.6 NW 6 9 999.8 - 0.0 - - 10 - - - -
28/05:00pm 28.0 NNE 5 7 999.6 - 0.0 - Partly cloudy 10 - - - -
28/04:30pm 27.1 N 5 6 999.9 - 0.0 - Partly cloudy 10 - - - -
28/04:00pm 27.4 SSW 8 11 999.5 - 0.0 - Partly cloudy 10 - - - -
28/03:30pm 28.0 WSW 15 24 998.9 - 0.0 - Partly cloudy 10 - - - -
28/03:24pm 28.0 WSW 14 24 999.1 - 0.0 - Partly cloudy 10 - - - -
28/03:00pm 32.9 N 7 11 998.8 - 0.0 - Mostly clear 10 - - - -
28/02:30pm 34.2 N 9 15 999.0 - 0.0 - Partly cloudy 10 - - - -
28/02:00pm 34.1 N 9 14 999.4 - 0.0 - - 10 - - - -
28/01:30pm 33.4 NNE 7 12 999.7 - 0.0 - Partly cloudy 10 - - - -
28/01:00pm 33.1 N 7 9 1000.0 - 0.0 - Partly cloudy 10 - - - -
28/12:30pm 32.8 N 5 9 1000.1 - 0.0 - Partly cloudy 10 - - - -
28/12:00pm 33.0 N 7 13 1000.3 - 0.0 - Mostly clear 10 - - - -
28/11:30am 32.8 NNW 7 10 1000.9 - 0.0 - Partly cloudy 10 - - - -
28/11:00am 31.8 NNW 6 12 1001.2 - 0.0 - Partly cloudy 10 - - - -
28/10:30am 31.8 N 6 9 1001.5 - 0.0 - Partly cloudy 10 - - - -
28/10:00am 32.0 NNE 4 8 1001.6 - 0.0 - Partly cloudy 10 - - - -
28/09:30am 30.7 W 3 6 1001.8 - 0.0 - Partly cloudy 10 - - - -
28/09:00am 30.3 NE 1 4 1002.0 - 0.0 - Mostly clear 10 - - - -
28/08:30am 29.1 NNW 2 6 1001.8 - 0.0 - - 10 - - - -
28/08:00am 28.7 CALM 0 3 1001.9 - 0.0 - - 10 - - - -
28/07:30am 27.2 CALM 0 0 1001.6 - 0.0 - - 10 - - - -
28/07:00am 25.9 WSW 1 3 1001.5 - 0.0 - - 10 - - - -
28/06:30am 24.9 CALM 0 0 1001.3 - 0.0 - - 10 - - - -
28/06:00am 24.3 CALM 0 0 1001.2 - 0.0 - - 10 - - - -
28/05:30am 24.4 CALM 0 0 1001.0 - 0.0 - - 10 - - - -
28/05:00am 24.6 CALM 0 0 1000.6 - 0.0 - - 10 - - - -
28/04:30am 24.7 CALM 0 0 1000.5 - 0.0 - - 10 - - - -
28/04:00am 24.9 CALM 0 0 1000.7 - 0.0 - Partly cloudy 10 - - - -
28/03:30am 25.0 CALM 0 0 1000.5 - 0.0 - Partly cloudy 10 - - - -
28/03:00am 25.2 CALM 0 0 1000.4 - 0.0 - Partly cloudy 10 - - - -
28/02:56am 25.1 S 1 4 1000.5 - 0.0 - Partly cloudy 10 - - - -
28/02:36am 24.9 W 3 4 1000.5 - 0.0 - Partly cloudy 6 - - - -
28/02:30am 25.0 WNW 3 4 1000.5 - 0.0 - - 10 - - - -
28/02:27am 25.2 NW 2 4 1000.5 - 0.0 - - 10 - - - -
28/02:07am 25.2 CALM 0 0 1000.8 - 0.0 - - 4 - - - -
28/02:00am 25.1 CALM 0 0 1000.9 - 0.0 - - 10 - - - -
28/01:30am 25.4 CALM 0 0 1001.5 - 0.0 - - 10 - - - -
28/01:00am 25.7 CALM 0 0 1002.0 - 0.0 - - 10 - - - -
28/12:30am 25.9 CALM 0 0 1002.4 - 0.0 - - 10 - - - -
28/12:00am 26.0 CALM 0 0 1002.7 - 0.0 - - 10 - - - -
 
Date/Time
EST
Temp

°C
Wind Pressure Rain
since 9am
mm
Weather Cloud Vis
km
Sea
Height
m
Swell
Dir
 
Speed
knots
Gust
knots
hPa Trend Height
m
Period
s
Dir
27/11:30pm 26.0 SW 1 3 1002.9 - 0.0 - - 10 - - - -
27/11:00pm 26.2 SSW 2 4 1003.1 - 0.0 - - 10 - - - -
27/10:30pm 26.9 CALM 0 2 1003.5 - 0.0 - Partly cloudy 10 - - - -
27/10:02pm 26.8 SSE 3 4 1003.5 - 0.0 - Partly cloudy 10 - - - -
27/10:00pm 26.8 SSE 3 4 1003.5 - 0.0 - Partly cloudy 10 - - - -
27/09:30pm 26.9 CALM 0 1 1003.2 - 0.0 - Partly cloudy 10 - - - -
27/09:26pm 26.8 NE 1 3 1003.2 - 0.0 - Partly cloudy 10 - - - -
27/09:00pm 27.1 E 3 5 1003.1 - 0.0 - - 10 - - - -
27/08:30pm 27.1 E 4 6 1002.8 - 0.0 - - 10 - - - -
27/08:00pm 27.6 E 6 7 1002.5 - 0.0 - - 10 - - - -
27/07:30pm 27.7 ESE 5 7 1001.9 - 0.0 - - 10 - - - -
27/07:00pm 28.4 SSE 7 9 1001.7 - 0.0 - - 10 - - - -
27/06:30pm 29.2 SE 8 11 1001.2 - 0.0 - Partly cloudy 10 - - - -
27/06:00pm 30.0 SE 8 11 1000.8 - 0.0 - - 10 - - - -
27/05:30pm 29.7 SSE 7 9 1000.2 - 0.0 - - 10 - - - -
27/05:00pm 29.8 SSE 4 7 1000.1 - 0.0 - - 10 - - - -
27/04:30pm 29.7 SSE 7 9 1000.5 - 0.0 - - 10 - - - -
27/04:00pm 29.5 SSE 5 7 1000.5 - 0.0 - - 10 - - - -
27/03:30pm 29.2 SSE 5 7 1000.6 - 0.0 - - 10 - - - -
27/03:00pm 29.2 SE 4 5 1001.1 - 0.0 - Partly cloudy 10 - - - -
27/02:30pm 29.5 SE 5 7 1001.5 - 0.0 - - 10 - - - -
27/02:00pm 30.1 ESE 7 11 1001.4 - 0.0 - - 10 - - - -
27/01:30pm 31.1 ESE 8 12 1001.5 - 0.0 - - 10 - - - -
27/01:00pm 33.4 ESE 11 14 1001.7 - 0.0 - - 10 - - - -
27/12:30pm 32.7 ESE 9 13 1002.1 - 0.0 - - 10 - - - -
27/12:00pm 32.3 ESE 10 14 1002.4 - 0.0 - Mostly clear 10 - - - -
27/11:30am 32.0 ESE 6 9 1002.7 - 0.0 - Partly cloudy 10 - - - -
27/11:00am 32.0 ESE 5 9 1003.0 - 0.0 - - 10 - - - -
27/10:30am 32.0 SE 4 8 1003.2 - 0.0 - - 10 - - - -
27/10:00am 31.2 SE 4 7 1003.4 - 0.0 - - 10 - - - -
27/09:30am 30.7 S 5 7 1003.6 - 0.0 - Partly cloudy 10 - - - -
27/09:00am 30.0 SE 4 6 1003.7 - 0.0 - - 10 - - - -
27/08:30am 28.8 ESE 4 6 1003.7 - 0.0 - - 10 - - - -
27/08:00am 27.9 ESE 3 5 1003.6 - 0.0 - - 10 - - - -
27/07:30am 27.0 SSE 1 4 1003.5 - 0.0 - - 10 - - - -
27/07:02am 25.5 CALM 0 0 1003.4 - 0.0 - Partly cloudy 10 - - - -
27/07:00am 25.4 CALM 0 0 1003.4 - 0.0 - Partly cloudy 10 - - - -
27/06:30am 24.6 CALM 0 0 1003.6 - 0.0 - Partly cloudy 10 - - - -
27/06:24am 24.5 CALM 0 0 1003.6 - 0.0 - Partly cloudy 10 - - - -
27/06:00am 23.9 CALM 0 0 1003.1 - 0.0 - - 10 - - - -
27/05:30am 24.1 SE 4 6 1002.9 - 0.0 - - 10 - - - -
27/05:00am 24.0 CALM 0 0 1002.7 - 0.0 - - 10 - - - -
27/04:30am 24.0 NW 4 5 1002.4 - 0.0 - - 10 - - - -
27/04:00am 24.1 NW 4 5 1002.4 - 0.0 - - 10 - - - -
27/03:30am 24.2 NW 3 4 1002.5 - 0.0 - - 10 - - - -
27/03:00am 24.5 CALM 0 0 1002.4 - 0.0 - - 10 - - - -
27/02:30am 24.5 CALM 0 0 1002.5 - 0.0 - - 10 - - - -
27/02:00am 24.5 CALM 0 3 1002.9 - 0.0 - - 10 - - - -
27/01:30am 24.4 N 3 5 1003.0 - 0.0 - - 10 - - - -
27/01:00am 24.5 N 3 4 1003.3 - 0.0 - - 10 - - - -
27/12:30am 24.8 NW 3 5 1003.9 - 0.0 - - 10 - - - -
27/12:00am 24.8 CALM 0 3 1004.3 - 0.0 - - 10 - - - -
 
Date/Time
EST
Temp

°C
Wind Pressure Rain
since 9am
mm
Weather Cloud Vis
km
Sea
Height
m
Swell
Dir
 
Speed
knots
Gust
knots
hPa Trend Height
m
Period
s
Dir
26/11:30pm 24.9 NNW 3 4 1004.5 - 0.0 - - 10 - - - -
26/11:00pm 24.9 N 3 4 1004.5 - 0.0 - - 10 - - - -
26/10:30pm 25.0 CALM 0 0 1004.4 - 0.0 - - 10 - - - -
26/10:00pm 25.2 NW 3 4 1004.4 - 0.0 - - 10 - - - -
26/09:30pm 25.2 NW 5 6 1004.4 - 0.0 - - 10 - - - -
26/09:00pm 25.4 CALM 0 0 1004.4 - 0.0 - - 10 - - - -
26/08:30pm 25.4 NNW 2 4 1003.9 - 0.0 - - 10 - - - -
26/08:00pm 25.6 CALM 0 2 1003.5 - 0.0 - - 10 - - - -
26/07:30pm 25.7 N 2 5 1003.5 - 0.0 - - 10 - - - -
26/07:00pm 26.1 N 3 6 1003.2 - 0.0 - - 10 - - - -
26/06:30pm 27.6 NW 2 4 1003.1 - 0.0 - - 10 - - - -
26/06:00pm 27.4 SSW 6 7 1002.9 - 0.0 - Mostly clear 10 - - - -
26/05:30pm 25.3 W 5 6 1002.8 - 0.0 - - 10 - - - -
26/05:00pm 25.4 WSW 5 8 1003.0 - 0.0 - Partly cloudy 10 - - - -
26/04:30pm 26.6 WNW 8 13 1002.9 - 0.0 - Partly cloudy 10 - - - -
26/04:00pm 30.4 SE 10 13 1002.6 - 0.0 - Partly cloudy 10 - - - -
26/03:30pm 32.2 SE 11 16 1002.7 - 0.0 - - 10 - - - -
26/03:00pm 33.1 ESE 9 11 1002.7 - 0.0 - Mostly clear 10 - - - -
26/02:30pm 32.8 ESE 7 11 1002.8 - 0.0 - - 10 - - - -
26/02:00pm 33.2 ENE 6 9 1003.1 - 0.0 - - 10 - - - -
26/01:30pm 32.7 E 8 11 1003.3 - 0.0 - - 10 - - - -
26/01:00pm 33.7 ESE 7 10 1003.6 - 0.0 - - 10 - - - -
26/12:30pm 33.0 ESE 7 10 1003.8 - 0.0 - Partly cloudy 10 - - - -
26/12:00pm 32.3 E 3 7 1003.9 - 0.0 - Mostly clear 10 - - - -
26/11:30am 31.9 ESE 3 6 1004.3 - 0.0 - - 10 - - - -
26/11:00am 31.8 ESE 5 7 1004.8 - 0.0 - - 10 - - - -
26/10:30am 30.9 SE 4 6 1005.1 - 0.0 - - 10 - - - -
26/10:00am 30.4 ESE 3 6 1005.2 - 0.0 - - 10 - - - -
26/09:30am 29.5 NE 2 4 1005.1 - 0.0 - - 10 - - - -
26/09:00am 29.0 NNW 1 5 1005.3 - 33.2 - Mostly clear 10 - - - -
26/08:30am 27.8 CALM 0 0 1005.2 - 33.2 - - 10 - - - -

Other Formats:

Comma delimited format used in spreadsheet applications
http://www.bom.gov.au/fwo/IDQ60701/IDQ60701.94365.axf

JavaScript Object Notation format (JSON) in row-major order
http://www.bom.gov.au/fwo/IDQ60701/IDQ60701.94365.json